FDX38 EDDK-LFPG
Flight info
| Callsign | FDX38 |
|---|---|
| Flight time | 1h 2m |
| Altitude | 24000 |
| Route | NVO3P NVO M170 LNO/N0419F230 N852 DIK/N0391F180 Y180 TILVI Q763 RAPOR/N0396F190 Z157 VEDUS |
| Aircraft | MD11/H-SDE1E2E3FGHIJ2J3J4J5M1RWXY/LB1D1 |
Departure
| Time | 2026-05-08 12:10 |
|---|---|
| Airport | Cologne Bonn Airport (EDDK) |
Arrival
| Time | 2026-05-08 13:12 |
|---|---|
| Airport | Charles de Gaulle International Airport (LFPG) |
| Time | Latitude | Longitude | Altitude | Speed | Heading |
|---|---|---|---|---|---|
| 2026-05-08 11:41 | 50.86820 | 7.13017 | 249 ft | 0 kts | 47° |
| 2026-05-08 11:59 | 50.86817 | 7.13012 | 249 ft | 3 kts | 47° |
| 2026-05-08 11:59 | 50.86799 | 7.12981 | 249 ft | 4 kts | 47° |
| 2026-05-08 11:59 | 50.86785 | 7.12955 | 249 ft | 4 kts | 46° |
| 2026-05-08 11:59 | 50.86767 | 7.12932 | 249 ft | 4 kts | 11° |
| 2026-05-08 12:00 | 50.86746 | 7.12933 | 250 ft | 4 kts | 329° |
| 2026-05-08 12:00 | 50.86727 | 7.12956 | 250 ft | 4 kts | 317° |
| 2026-05-08 12:00 | 50.86714 | 7.12976 | 251 ft | 1 kts | 317° |
| 2026-05-08 12:04 | 50.86717 | 7.12971 | 251 ft | 2 kts | 317° |
| 2026-05-08 12:05 | 50.86737 | 7.12942 | 250 ft | 6 kts | 317° |
| 2026-05-08 12:05 | 50.86783 | 7.12875 | 248 ft | 11 kts | 317° |
| 2026-05-08 12:05 | 50.86850 | 7.12777 | 246 ft | 15 kts | 317° |
| 2026-05-08 12:05 | 50.86934 | 7.12657 | 244 ft | 18 kts | 317° |
| 2026-05-08 12:06 | 50.87024 | 7.12526 | 241 ft | 17 kts | 317° |
| 2026-05-08 12:06 | 50.87119 | 7.12388 | 240 ft | 19 kts | 317° |
| 2026-05-08 12:06 | 50.87191 | 7.12292 | 240 ft | 14 kts | 333° |
| 2026-05-08 12:06 | 50.87273 | 7.12291 | 240 ft | 12 kts | 24° |
| 2026-05-08 12:07 | 50.87377 | 7.12350 | 239 ft | 16 kts | 17° |
| 2026-05-08 12:07 | 50.87500 | 7.12413 | 239 ft | 22 kts | 18° |
| 2026-05-08 12:07 | 50.87642 | 7.12487 | 240 ft | 20 kts | 18° |
| 2026-05-08 12:07 | 50.87731 | 7.12532 | 240 ft | 6 kts | 18° |
| 2026-05-08 12:08 | 50.87776 | 7.12555 | 240 ft | 8 kts | 18° |
| 2026-05-08 12:08 | 50.87861 | 7.12598 | 240 ft | 19 kts | 18° |
| 2026-05-08 12:08 | 50.87938 | 7.12653 | 240 ft | 9 kts | 44° |
| 2026-05-08 12:08 | 50.87983 | 7.12732 | 242 ft | 12 kts | 53° |
| 2026-05-08 12:09 | 50.88010 | 7.12841 | 246 ft | 6 kts | 78° |
| 2026-05-08 12:09 | 50.88010 | 7.12943 | 246 ft | 12 kts | 111° |
| 2026-05-08 12:09 | 50.87973 | 7.13015 | 246 ft | 9 kts | 138° |
| 2026-05-08 12:09 | 50.87948 | 7.13051 | 246 ft | 0 kts | 137° |
| 2026-05-08 12:10 | 50.87934 | 7.13071 | 246 ft | 25 kts | 137° |
| 2026-05-08 12:10 | 50.87433 | 7.13795 | 250 ft | 164 kts | 137° |
| 2026-05-08 12:10 | 50.86447 | 7.15259 | 967 ft | 219 kts | 136° |
| 2026-05-08 12:10 | 50.85302 | 7.16937 | 2367 ft | 232 kts | 137° |
| 2026-05-08 12:11 | 50.84023 | 7.18778 | 3528 ft | 247 kts | 137° |
| 2026-05-08 12:11 | 50.82870 | 7.20424 | 5779 ft | 238 kts | 138° |
| 2026-05-08 12:11 | 50.81529 | 7.22295 | 6734 ft | 265 kts | 140° |
| 2026-05-08 12:11 | 50.79996 | 7.23862 | 8091 ft | 270 kts | 159° |
| 2026-05-08 12:12 | 50.78146 | 7.24630 | 9813 ft | 272 kts | 171° |
| 2026-05-08 12:12 | 50.76287 | 7.25101 | 11626 ft | 280 kts | 173° |
| 2026-05-08 12:12 | 50.74328 | 7.25546 | 13193 ft | 291 kts | 173° |
| 2026-05-08 12:12 | 50.72315 | 7.25996 | 14465 ft | 298 kts | 174° |
| 2026-05-08 12:13 | 50.70131 | 7.26041 | 14792 ft | 334 kts | 191° |
| 2026-05-08 12:13 | 50.67851 | 7.24707 | 15023 ft | 366 kts | 213° |
| 2026-05-08 12:13 | 50.65961 | 7.22037 | 16037 ft | 371 kts | 232° |
| 2026-05-08 12:13 | 50.64697 | 7.18506 | 17127 ft | 375 kts | 250° |
| 2026-05-08 12:14 | 50.64178 | 7.14458 | 18222 ft | 381 kts | 268° |
| 2026-05-08 12:14 | 50.64464 | 7.10295 | 19186 ft | 388 kts | 284° |
| 2026-05-08 12:14 | 50.65491 | 7.06351 | 20065 ft | 396 kts | 297° |
| 2026-05-08 12:14 | 50.66902 | 7.02598 | 20968 ft | 402 kts | 301° |
| 2026-05-08 12:15 | 50.68432 | 6.98888 | 21856 ft | 409 kts | 302° |
| 2026-05-08 12:15 | 50.70017 | 6.95134 | 22702 ft | 417 kts | 302° |
| 2026-05-08 12:15 | 50.71636 | 6.91322 | 23090 ft | 419 kts | 302° |
| 2026-05-08 12:15 | 50.73259 | 6.87513 | 23503 ft | 422 kts | 302° |
| 2026-05-08 12:16 | 50.74900 | 6.83659 | 23843 ft | 425 kts | 302° |
| 2026-05-08 12:16 | 50.76545 | 6.79800 | 23924 ft | 419 kts | 302° |
| 2026-05-08 12:16 | 50.78102 | 6.76155 | 23954 ft | 388 kts | 302° |
| 2026-05-08 12:16 | 50.79524 | 6.72610 | 23951 ft | 378 kts | 298° |
| 2026-05-08 12:17 | 50.80715 | 6.68929 | 23953 ft | 374 kts | 292° |
| 2026-05-08 12:17 | 50.81585 | 6.65081 | 23938 ft | 371 kts | 279° |
| 2026-05-08 12:17 | 50.81665 | 6.61041 | 23951 ft | 367 kts | 260° |
| 2026-05-08 12:17 | 50.81010 | 6.57163 | 23955 ft | 366 kts | 249° |
| 2026-05-08 12:18 | 50.80044 | 6.53428 | 23962 ft | 367 kts | 245° |
| 2026-05-08 12:18 | 50.79011 | 6.49743 | 23967 ft | 367 kts | 245° |
| 2026-05-08 12:18 | 50.77989 | 6.46060 | 23966 ft | 367 kts | 246° |
| 2026-05-08 12:18 | 50.76992 | 6.42360 | 23961 ft | 367 kts | 246° |
| 2026-05-08 12:19 | 50.76018 | 6.38648 | 23960 ft | 368 kts | 247° |
| 2026-05-08 12:19 | 50.75055 | 6.34912 | 23961 ft | 367 kts | 247° |
| 2026-05-08 12:19 | 50.74100 | 6.31168 | 23956 ft | 367 kts | 247° |
| 2026-05-08 12:19 | 50.73151 | 6.27427 | 23958 ft | 368 kts | 247° |
| 2026-05-08 12:20 | 50.72201 | 6.23702 | 23956 ft | 367 kts | 247° |
| 2026-05-08 12:20 | 50.71235 | 6.19967 | 23957 ft | 367 kts | 247° |
| 2026-05-08 12:20 | 50.70268 | 6.16244 | 23956 ft | 367 kts | 247° |
| 2026-05-08 12:20 | 50.69303 | 6.12514 | 23953 ft | 367 kts | 247° |
| 2026-05-08 12:21 | 50.68349 | 6.08799 | 23950 ft | 367 kts | 247° |
| 2026-05-08 12:21 | 50.67392 | 6.05064 | 23960 ft | 367 kts | 247° |
| 2026-05-08 12:21 | 50.66440 | 6.01343 | 23961 ft | 367 kts | 247° |
| 2026-05-08 12:21 | 50.65489 | 5.97629 | 23959 ft | 366 kts | 247° |
| 2026-05-08 12:22 | 50.64538 | 5.93921 | 23955 ft | 366 kts | 247° |
| 2026-05-08 12:22 | 50.63587 | 5.90216 | 23940 ft | 366 kts | 247° |
| 2026-05-08 12:22 | 50.62631 | 5.86498 | 23938 ft | 366 kts | 247° |
| 2026-05-08 12:22 | 50.61626 | 5.82831 | 23938 ft | 366 kts | 243° |
| 2026-05-08 12:23 | 50.60286 | 5.79468 | 23938 ft | 365 kts | 230° |
| 2026-05-08 12:23 | 50.58434 | 5.76769 | 23939 ft | 365 kts | 214° |
| 2026-05-08 12:23 | 50.56151 | 5.75047 | 23938 ft | 367 kts | 198° |
| 2026-05-08 12:23 | 50.53636 | 5.74459 | 23949 ft | 369 kts | 181° |
| 2026-05-08 12:24 | 50.51095 | 5.75017 | 23946 ft | 373 kts | 167° |
| 2026-05-08 12:24 | 50.48661 | 5.76292 | 23949 ft | 374 kts | 161° |
| 2026-05-08 12:24 | 50.46251 | 5.77811 | 23948 ft | 375 kts | 160° |
| 2026-05-08 12:24 | 50.43839 | 5.79372 | 23950 ft | 375 kts | 160° |
| 2026-05-08 12:25 | 50.41426 | 5.80900 | 23944 ft | 375 kts | 160° |
| 2026-05-08 12:25 | 50.39008 | 5.82390 | 23947 ft | 375 kts | 161° |
| 2026-05-08 12:25 | 50.36582 | 5.83851 | 23950 ft | 375 kts | 161° |
| 2026-05-08 12:25 | 50.34145 | 5.85296 | 23944 ft | 375 kts | 161° |
| 2026-05-08 12:26 | 50.31715 | 5.86724 | 23946 ft | 375 kts | 161° |
| 2026-05-08 12:26 | 50.29282 | 5.88147 | 23948 ft | 375 kts | 162° |
| 2026-05-08 12:26 | 50.26846 | 5.89567 | 23937 ft | 375 kts | 162° |
| 2026-05-08 12:26 | 50.24414 | 5.90982 | 23939 ft | 374 kts | 162° |
| 2026-05-08 12:27 | 50.21981 | 5.92396 | 23946 ft | 374 kts | 162° |
| 2026-05-08 12:27 | 50.19548 | 5.93808 | 23945 ft | 378 kts | 162° |
| 2026-05-08 12:27 | 50.17037 | 5.95259 | 23715 ft | 403 kts | 162° |
| 2026-05-08 12:27 | 50.14357 | 5.96807 | 23128 ft | 410 kts | 161° |
| 2026-05-08 12:28 | 50.11688 | 5.98352 | 22446 ft | 412 kts | 161° |
| 2026-05-08 12:28 | 50.08995 | 5.99910 | 21806 ft | 413 kts | 161° |
| 2026-05-08 12:28 | 50.06310 | 6.01455 | 21178 ft | 412 kts | 161° |
| 2026-05-08 12:28 | 50.03669 | 6.02970 | 20558 ft | 408 kts | 161° |
| 2026-05-08 12:29 | 50.00979 | 6.04512 | 20093 ft | 405 kts | 161° |
| 2026-05-08 12:29 | 49.98353 | 6.06016 | 19721 ft | 403 kts | 161° |
| 2026-05-08 12:29 | 49.95776 | 6.07491 | 19351 ft | 401 kts | 161° |
| 2026-05-08 12:29 | 49.93155 | 6.08909 | 19095 ft | 397 kts | 165° |
| 2026-05-08 12:30 | 49.90458 | 6.09759 | 19088 ft | 395 kts | 176° |
| 2026-05-08 12:30 | 49.87728 | 6.09597 | 19085 ft | 393 kts | 191° |
| 2026-05-08 12:30 | 49.85154 | 6.08294 | 19086 ft | 391 kts | 207° |
| 2026-05-08 12:30 | 49.82914 | 6.05962 | 19088 ft | 391 kts | 221° |
| 2026-05-08 12:31 | 49.81093 | 6.02856 | 19079 ft | 392 kts | 232° |
| 2026-05-08 12:31 | 49.79512 | 5.99417 | 19081 ft | 392 kts | 235° |
| 2026-05-08 12:31 | 49.78015 | 5.95921 | 19083 ft | 392 kts | 236° |
| 2026-05-08 12:31 | 49.76516 | 5.92422 | 19084 ft | 392 kts | 236° |
| 2026-05-08 12:32 | 49.74997 | 5.88949 | 19082 ft | 392 kts | 235° |
| 2026-05-08 12:32 | 49.73450 | 5.85499 | 19091 ft | 391 kts | 234° |
| 2026-05-08 12:32 | 49.71881 | 5.82064 | 19083 ft | 391 kts | 234° |
| 2026-05-08 12:32 | 49.70308 | 5.78653 | 19084 ft | 391 kts | 234° |
| 2026-05-08 12:33 | 49.68731 | 5.75252 | 19081 ft | 391 kts | 234° |
| 2026-05-08 12:33 | 49.67151 | 5.71853 | 19084 ft | 391 kts | 234° |
| 2026-05-08 12:33 | 49.65570 | 5.68456 | 19083 ft | 391 kts | 234° |
| 2026-05-08 12:33 | 49.63989 | 5.65065 | 19084 ft | 391 kts | 233° |
| 2026-05-08 12:34 | 49.62406 | 5.61654 | 19086 ft | 391 kts | 235° |
| 2026-05-08 12:34 | 49.61082 | 5.58013 | 19071 ft | 392 kts | 248° |
| 2026-05-08 12:34 | 49.60414 | 5.53958 | 19084 ft | 394 kts | 260° |
| 2026-05-08 12:34 | 49.60153 | 5.49772 | 19083 ft | 394 kts | 265° |
| 2026-05-08 12:35 | 49.60031 | 5.45566 | 19085 ft | 395 kts | 266° |
| 2026-05-08 12:35 | 49.59928 | 5.41341 | 19083 ft | 394 kts | 266° |
| 2026-05-08 12:35 | 49.59804 | 5.37186 | 19084 ft | 394 kts | 265° |
| 2026-05-08 12:35 | 49.59652 | 5.32997 | 19082 ft | 394 kts | 265° |
| 2026-05-08 12:36 | 49.59483 | 5.28854 | 19082 ft | 394 kts | 265° |
| 2026-05-08 12:36 | 49.59298 | 5.24663 | 19079 ft | 394 kts | 264° |
| 2026-05-08 12:36 | 49.59165 | 5.20467 | 19083 ft | 394 kts | 267° |
| 2026-05-08 12:36 | 49.59146 | 5.16255 | 19078 ft | 388 kts | 269° |
| 2026-05-08 12:37 | 49.59179 | 5.12148 | 19081 ft | 383 kts | 269° |
| 2026-05-08 12:37 | 49.59226 | 5.08062 | 19076 ft | 382 kts | 269° |
| 2026-05-08 12:37 | 49.59273 | 5.03980 | 19079 ft | 382 kts | 269° |
| 2026-05-08 12:37 | 49.59316 | 4.99910 | 19078 ft | 382 kts | 269° |
| 2026-05-08 12:38 | 49.59355 | 4.95816 | 19079 ft | 382 kts | 269° |
| 2026-05-08 12:38 | 49.59389 | 4.91739 | 19082 ft | 382 kts | 269° |
| 2026-05-08 12:38 | 49.59421 | 4.87660 | 19077 ft | 382 kts | 269° |
| 2026-05-08 12:38 | 49.59450 | 4.83586 | 19078 ft | 382 kts | 269° |
| 2026-05-08 12:39 | 49.59477 | 4.79541 | 19078 ft | 382 kts | 269° |
| 2026-05-08 12:39 | 49.59497 | 4.75449 | 19080 ft | 382 kts | 269° |
| 2026-05-08 12:39 | 49.59514 | 4.71377 | 19081 ft | 382 kts | 269° |
| 2026-05-08 12:39 | 49.59531 | 4.67296 | 19081 ft | 382 kts | 269° |
| 2026-05-08 12:40 | 49.59549 | 4.63220 | 19078 ft | 382 kts | 269° |
| 2026-05-08 12:40 | 49.59568 | 4.59144 | 19078 ft | 382 kts | 269° |
| 2026-05-08 12:40 | 49.59586 | 4.55053 | 19077 ft | 382 kts | 269° |
| 2026-05-08 12:40 | 49.59602 | 4.50971 | 19078 ft | 382 kts | 269° |
| 2026-05-08 12:41 | 49.59618 | 4.46897 | 19078 ft | 382 kts | 269° |
| 2026-05-08 12:41 | 49.59633 | 4.42814 | 19075 ft | 382 kts | 269° |
| 2026-05-08 12:41 | 49.59646 | 4.38723 | 19075 ft | 382 kts | 269° |
| 2026-05-08 12:41 | 49.59657 | 4.34650 | 19076 ft | 382 kts | 269° |
| 2026-05-08 12:42 | 49.59667 | 4.30573 | 19075 ft | 382 kts | 269° |
| 2026-05-08 12:42 | 49.59676 | 4.26499 | 19075 ft | 382 kts | 269° |
| 2026-05-08 12:42 | 49.59683 | 4.22417 | 19075 ft | 382 kts | 269° |
| 2026-05-08 12:42 | 49.59689 | 4.18322 | 19075 ft | 382 kts | 269° |
| 2026-05-08 12:43 | 49.59694 | 4.14248 | 19073 ft | 382 kts | 269° |
| 2026-05-08 12:43 | 49.59671 | 4.10173 | 19073 ft | 381 kts | 266° |
| 2026-05-08 12:43 | 49.59237 | 4.06178 | 19071 ft | 379 kts | 251° |
| 2026-05-08 12:43 | 49.58144 | 4.02515 | 19077 ft | 379 kts | 240° |
| 2026-05-08 12:44 | 49.56744 | 3.99071 | 19080 ft | 379 kts | 236° |
| 2026-05-08 12:44 | 49.55269 | 3.95731 | 19075 ft | 379 kts | 235° |
| 2026-05-08 12:44 | 49.53780 | 3.92387 | 19069 ft | 379 kts | 236° |
| 2026-05-08 12:44 | 49.52313 | 3.89040 | 19070 ft | 379 kts | 236° |
| 2026-05-08 12:45 | 49.50857 | 3.85666 | 19068 ft | 379 kts | 236° |
| 2026-05-08 12:45 | 49.49410 | 3.82274 | 19072 ft | 379 kts | 237° |
| 2026-05-08 12:45 | 49.48025 | 3.78916 | 19066 ft | 379 kts | 240° |
| 2026-05-08 12:45 | 49.46969 | 3.75162 | 19070 ft | 380 kts | 250° |
| 2026-05-08 12:46 | 49.46222 | 3.71301 | 19062 ft | 380 kts | 254° |
| 2026-05-08 12:46 | 49.45576 | 3.67364 | 19065 ft | 380 kts | 255° |
| 2026-05-08 12:46 | 49.44964 | 3.63472 | 19070 ft | 380 kts | 255° |
| 2026-05-08 12:46 | 49.44339 | 3.59549 | 19066 ft | 380 kts | 255° |
| 2026-05-08 12:47 | 49.43699 | 3.55614 | 19071 ft | 380 kts | 255° |
| 2026-05-08 12:47 | 49.43051 | 3.51701 | 19068 ft | 380 kts | 255° |
| 2026-05-08 12:47 | 49.42377 | 3.47723 | 19066 ft | 380 kts | 253° |
| 2026-05-08 12:47 | 49.41554 | 3.43875 | 19068 ft | 379 kts | 249° |
| 2026-05-08 12:48 | 49.40605 | 3.40116 | 19064 ft | 379 kts | 247° |
| 2026-05-08 12:48 | 49.39611 | 3.36393 | 19064 ft | 378 kts | 247° |
| 2026-05-08 12:48 | 49.38618 | 3.32727 | 19060 ft | 379 kts | 247° |
| 2026-05-08 12:48 | 49.37607 | 3.28994 | 19061 ft | 379 kts | 247° |
| 2026-05-08 12:49 | 49.36586 | 3.25205 | 19061 ft | 379 kts | 247° |
| 2026-05-08 12:49 | 49.35587 | 3.21484 | 19066 ft | 379 kts | 247° |
| 2026-05-08 12:49 | 49.34587 | 3.17758 | 19063 ft | 379 kts | 247° |
| 2026-05-08 12:49 | 49.33600 | 3.14073 | 19067 ft | 379 kts | 247° |
| 2026-05-08 12:50 | 49.32596 | 3.10330 | 19064 ft | 379 kts | 247° |
| 2026-05-08 12:50 | 49.31594 | 3.06598 | 19061 ft | 379 kts | 247° |
| 2026-05-08 12:50 | 49.30594 | 3.02880 | 19063 ft | 379 kts | 247° |
| 2026-05-08 12:50 | 49.29591 | 2.99155 | 19058 ft | 379 kts | 247° |
| 2026-05-08 12:51 | 49.28912 | 2.96640 | 19059 ft | 379 kts | 247° |
| 2026-05-08 12:51 | 49.26637 | 2.88219 | 17790 ft | 348 kts | 247° |
| 2026-05-08 12:51 | 49.26028 | 2.85966 | 17705 ft | 330 kts | 246° |
| 2026-05-08 12:52 | 49.25180 | 2.82834 | 17467 ft | 311 kts | 246° |
| 2026-05-08 12:52 | 49.23549 | 2.76837 | 16263 ft | 302 kts | 246° |
| 2026-05-08 12:52 | 49.22744 | 2.73882 | 15643 ft | 300 kts | 246° |
| 2026-05-08 12:53 | 49.21944 | 2.70950 | 15035 ft | 297 kts | 246° |
| 2026-05-08 12:53 | 49.21150 | 2.68046 | 14425 ft | 295 kts | 246° |
| 2026-05-08 12:53 | 49.20363 | 2.65164 | 13847 ft | 293 kts | 246° |
| 2026-05-08 12:53 | 49.19581 | 2.62309 | 13286 ft | 289 kts | 246° |
| 2026-05-08 12:54 | 49.18810 | 2.59498 | 12947 ft | 290 kts | 246° |
| 2026-05-08 12:54 | 49.18229 | 2.56565 | 12625 ft | 287 kts | 259° |
| 2026-05-08 12:54 | 49.18024 | 2.53518 | 12297 ft | 289 kts | 265° |
| 2026-05-08 12:54 | 49.17932 | 2.50458 | 11965 ft | 288 kts | 266° |
| 2026-05-08 12:55 | 49.17868 | 2.47447 | 11646 ft | 287 kts | 267° |
| 2026-05-08 12:55 | 49.17808 | 2.44413 | 11312 ft | 285 kts | 267° |
| 2026-05-08 12:55 | 49.17742 | 2.41387 | 10986 ft | 285 kts | 267° |
| 2026-05-08 12:55 | 49.17662 | 2.38391 | 10667 ft | 277 kts | 267° |
| 2026-05-08 12:56 | 49.17581 | 2.35495 | 10354 ft | 272 kts | 267° |
| 2026-05-08 12:56 | 49.17498 | 2.32619 | 10041 ft | 271 kts | 266° |
| 2026-05-08 12:56 | 49.17412 | 2.29754 | 9702 ft | 269 kts | 266° |
| 2026-05-08 12:56 | 49.17324 | 2.26905 | 9349 ft | 268 kts | 266° |
| 2026-05-08 12:57 | 49.17231 | 2.24056 | 9003 ft | 269 kts | 266° |
| 2026-05-08 12:57 | 49.17134 | 2.21210 | 8653 ft | 268 kts | 267° |
| 2026-05-08 12:57 | 49.17032 | 2.18355 | 8324 ft | 269 kts | 266° |
| 2026-05-08 12:57 | 49.16925 | 2.15518 | 8090 ft | 269 kts | 266° |
| 2026-05-08 12:58 | 49.16816 | 2.12663 | 8056 ft | 269 kts | 266° |
| 2026-05-08 12:58 | 49.16708 | 2.09833 | 8043 ft | 268 kts | 266° |
| 2026-05-08 12:58 | 49.16598 | 2.07000 | 8044 ft | 269 kts | 266° |
| 2026-05-08 12:58 | 49.16488 | 2.04148 | 8057 ft | 269 kts | 266° |
| 2026-05-08 12:59 | 49.16378 | 2.01300 | 8044 ft | 269 kts | 266° |
| 2026-05-08 12:59 | 49.16267 | 1.98456 | 8044 ft | 268 kts | 266° |
| 2026-05-08 12:59 | 49.16157 | 1.95619 | 8043 ft | 268 kts | 266° |
| 2026-05-08 12:59 | 49.16047 | 1.92801 | 8044 ft | 268 kts | 266° |
| 2026-05-08 13:00 | 49.15936 | 1.89963 | 8048 ft | 268 kts | 266° |
| 2026-05-08 13:00 | 49.15825 | 1.87118 | 8032 ft | 265 kts | 266° |
| 2026-05-08 13:00 | 49.15715 | 1.84363 | 7201 ft | 260 kts | 266° |
| 2026-05-08 13:00 | 49.15551 | 1.81603 | 6768 ft | 263 kts | 261° |
| 2026-05-08 13:01 | 49.15107 | 1.78937 | 6307 ft | 250 kts | 250° |
| 2026-05-08 13:01 | 49.14382 | 1.76587 | 5841 ft | 242 kts | 239° |
| 2026-05-08 13:01 | 49.13298 | 1.74673 | 5367 ft | 240 kts | 214° |
| 2026-05-08 13:01 | 49.11769 | 1.73813 | 4993 ft | 237 kts | 184° |
| 2026-05-08 13:02 | 49.10174 | 1.74245 | 4621 ft | 234 kts | 153° |
| 2026-05-08 13:02 | 49.08962 | 1.75806 | 4233 ft | 229 kts | 126° |
| 2026-05-08 13:02 | 49.08081 | 1.77820 | 4026 ft | 228 kts | 121° |
| 2026-05-08 13:02 | 49.07230 | 1.79840 | 3986 ft | 226 kts | 122° |
| 2026-05-08 13:03 | 49.06376 | 1.81842 | 3989 ft | 226 kts | 121° |
| 2026-05-08 13:03 | 49.05521 | 1.83838 | 3974 ft | 223 kts | 121° |
| 2026-05-08 13:03 | 49.04665 | 1.85817 | 3990 ft | 225 kts | 122° |
| 2026-05-08 13:03 | 49.03811 | 1.87820 | 3986 ft | 225 kts | 121° |
| 2026-05-08 13:04 | 49.02960 | 1.89818 | 3985 ft | 226 kts | 122° |
| 2026-05-08 13:04 | 49.02103 | 1.91834 | 3990 ft | 226 kts | 122° |
| 2026-05-08 13:04 | 49.01252 | 1.93834 | 3988 ft | 226 kts | 121° |
| 2026-05-08 13:04 | 49.00393 | 1.95833 | 3990 ft | 226 kts | 122° |
| 2026-05-08 13:05 | 48.99704 | 1.97954 | 3970 ft | 223 kts | 100° |
| 2026-05-08 13:05 | 48.99682 | 2.00294 | 3990 ft | 223 kts | 85° |
| 2026-05-08 13:05 | 48.99808 | 2.02631 | 3985 ft | 223 kts | 85° |
| 2026-05-08 13:05 | 48.99934 | 2.04998 | 3990 ft | 224 kts | 85° |
| 2026-05-08 13:06 | 49.00060 | 2.07366 | 3986 ft | 224 kts | 85° |
| 2026-05-08 13:06 | 49.00183 | 2.09691 | 3988 ft | 224 kts | 85° |
| 2026-05-08 13:06 | 49.00309 | 2.12051 | 3980 ft | 224 kts | 85° |
| 2026-05-08 13:06 | 49.00436 | 2.14422 | 3980 ft | 224 kts | 85° |
| 2026-05-08 13:07 | 49.00561 | 2.16787 | 3997 ft | 223 kts | 85° |
| 2026-05-08 13:07 | 49.00687 | 2.19137 | 3990 ft | 223 kts | 85° |
| 2026-05-08 13:07 | 49.00806 | 2.21370 | 3959 ft | 200 kts | 85° |
| 2026-05-08 13:07 | 49.00912 | 2.23360 | 3977 ft | 187 kts | 85° |
| 2026-05-08 13:08 | 49.01017 | 2.25302 | 3886 ft | 185 kts | 85° |
| 2026-05-08 13:08 | 49.01119 | 2.27216 | 3643 ft | 181 kts | 85° |
| 2026-05-08 13:08 | 49.01222 | 2.29134 | 3402 ft | 181 kts | 85° |
| 2026-05-08 13:08 | 49.01325 | 2.31050 | 3181 ft | 182 kts | 85° |
| 2026-05-08 13:09 | 49.01421 | 2.32850 | 2946 ft | 175 kts | 85° |
| 2026-05-08 13:09 | 49.01522 | 2.34716 | 2688 ft | 178 kts | 85° |
| 2026-05-08 13:09 | 49.01623 | 2.36594 | 2449 ft | 177 kts | 85° |
| 2026-05-08 13:09 | 49.01713 | 2.38313 | 2184 ft | 152 kts | 85° |
| 2026-05-08 13:10 | 49.01799 | 2.39885 | 2017 ft | 146 kts | 84° |
| 2026-05-08 13:10 | 49.01880 | 2.41401 | 1836 ft | 143 kts | 84° |
| 2026-05-08 13:10 | 49.01959 | 2.42916 | 1658 ft | 141 kts | 84° |
| 2026-05-08 13:10 | 49.02047 | 2.44375 | 1489 ft | 141 kts | 84° |
| 2026-05-08 13:11 | 49.02125 | 2.45877 | 1231 ft | 141 kts | 85° |
| 2026-05-08 13:11 | 49.02199 | 2.47351 | 1046 ft | 143 kts | 84° |
| 2026-05-08 13:11 | 49.02281 | 2.48870 | 890 ft | 144 kts | 84° |
| 2026-05-08 13:11 | 49.02357 | 2.50393 | 683 ft | 144 kts | 82° |
| 2026-05-08 13:12 | 49.02440 | 2.51911 | 475 ft | 141 kts | 82° |
| 2026-05-08 13:12 | 49.02524 | 2.53376 | 368 ft | 128 kts | 85° |
| 2026-05-08 13:12 | 49.02580 | 2.54437 | 367 ft | 74 kts | 85° |
| 2026-05-08 13:12 | 49.02607 | 2.54996 | 367 ft | 37 kts | 87° |
| 2026-05-08 13:13 | 49.02562 | 2.55301 | 366 ft | 22 kts | 108° |
| 2026-05-08 13:13 | 49.02514 | 2.55469 | 369 ft | 13 kts | 116° |
| 2026-05-08 13:13 | 49.02472 | 2.55582 | 367 ft | 11 kts | 135° |
| 2026-05-08 13:13 | 49.02399 | 2.55615 | 365 ft | 12 kts | 174° |
| 2026-05-08 13:14 | 49.02308 | 2.55627 | 368 ft | 15 kts | 175° |
| 2026-05-08 13:14 | 49.02204 | 2.55639 | 369 ft | 7 kts | 175° |
| 2026-05-08 13:14 | 49.02153 | 2.55645 | 366 ft | 6 kts | 176° |
| 2026-05-08 13:14 | 49.02095 | 2.55651 | 365 ft | 12 kts | 175° |
| 2026-05-08 13:15 | 49.02003 | 2.55662 | 362 ft | 9 kts | 174° |
| 2026-05-08 13:15 | 49.01936 | 2.55671 | 368 ft | 7 kts | 178° |
| 2026-05-08 13:15 | 49.01897 | 2.55634 | 368 ft | 7 kts | 238° |
| 2026-05-08 13:15 | 49.01885 | 2.55532 | 367 ft | 13 kts | 265° |
| 2026-05-08 13:16 | 49.01876 | 2.55368 | 368 ft | 18 kts | 266° |
| 2026-05-08 13:16 | 49.01869 | 2.55225 | 366 ft | 12 kts | 265° |
| 2026-05-08 13:16 | 49.01860 | 2.55059 | 368 ft | 19 kts | 265° |
| 2026-05-08 13:16 | 49.01848 | 2.54842 | 362 ft | 15 kts | 265° |
| 2026-05-08 13:17 | 49.01838 | 2.54671 | 362 ft | 18 kts | 265° |
| 2026-05-08 13:17 | 49.01828 | 2.54468 | 367 ft | 21 kts | 265° |
| 2026-05-08 13:17 | 49.01816 | 2.54238 | 368 ft | 19 kts | 265° |
| 2026-05-08 13:17 | 49.01804 | 2.54017 | 364 ft | 22 kts | 265° |
| 2026-05-08 13:18 | 49.01793 | 2.53792 | 367 ft | 22 kts | 265° |
| 2026-05-08 13:18 | 49.01779 | 2.53561 | 365 ft | 24 kts | 265° |
| 2026-05-08 13:18 | 49.01765 | 2.53288 | 362 ft | 26 kts | 265° |
| 2026-05-08 13:18 | 49.01749 | 2.53025 | 364 ft | 26 kts | 265° |
| 2026-05-08 13:19 | 49.01735 | 2.52728 | 363 ft | 23 kts | 266° |
| 2026-05-08 13:19 | 49.01724 | 2.52516 | 363 ft | 22 kts | 265° |
| 2026-05-08 13:19 | 49.01709 | 2.52278 | 365 ft | 23 kts | 265° |
| 2026-05-08 13:19 | 49.01696 | 2.52026 | 362 ft | 21 kts | 266° |
| 2026-05-08 13:20 | 49.01687 | 2.51837 | 368 ft | 17 kts | 265° |
| 2026-05-08 13:20 | 49.01677 | 2.51655 | 367 ft | 18 kts | 265° |
| 2026-05-08 13:20 | 49.01666 | 2.51457 | 362 ft | 19 kts | 265° |
| 2026-05-08 13:20 | 49.01656 | 2.51287 | 367 ft | 16 kts | 265° |
| 2026-05-08 13:21 | 49.01646 | 2.51090 | 367 ft | 23 kts | 265° |
| 2026-05-08 13:21 | 49.01635 | 2.50891 | 362 ft | 19 kts | 265° |
| 2026-05-08 13:21 | 49.01624 | 2.50682 | 362 ft | 21 kts | 265° |
| 2026-05-08 13:21 | 49.01614 | 2.50488 | 369 ft | 18 kts | 265° |
| 2026-05-08 13:22 | 49.01605 | 2.50321 | 367 ft | 13 kts | 266° |
| 2026-05-08 13:22 | 49.01599 | 2.50183 | 368 ft | 14 kts | 266° |
| 2026-05-08 13:22 | 49.01597 | 2.50108 | 363 ft | 2 kts | 281° |
| 2026-05-08 13:22 | 49.01616 | 2.50087 | 370 ft | 6 kts | 338° |
| 2026-05-08 13:23 | 49.01682 | 2.50075 | 365 ft | 11 kts | 355° |
| 2026-05-08 13:23 | 49.01707 | 2.50072 | 368 ft | 4 kts | 355° |
| 2026-05-08 13:23 | 49.01716 | 2.50071 | 368 ft | 0 kts | 355° |